AAL188 KPHL-TKPK
Flight info
| Callsign | AAL188 |
|---|---|
| Flight time | N/A |
| Altitude | 39000 |
| Route | OOD DCT TEBEE DCT HAYDO DCT SIE B24 AZEZU/M084F390 DCT SQUAD DCT DARUX L459 KEEKA/N0483F390 L329 PJM |
| Aircraft | B77W/H-SDE1E2E3FGHIJ2J3J4J5M1RWXY/LB1D1 |
Departure
| Time | N/A |
|---|---|
| Airport | Philadelphia International Airport (KPHL) |
Arrival
| Time | 2026-04-27 16:58 |
|---|---|
| Airport | Robert L. Bradshaw International Airport (TKPK) |
| Time | Latitude | Longitude | Altitude | Speed | Heading |
|---|---|---|---|---|---|
| 2026-04-27 13:29 | 39.41455 | -75.34364 | 19457 ft | 454 kts | 190° |
| 2026-04-27 13:30 | 39.38304 | -75.34909 | 20319 ft | 458 kts | 191° |
| 2026-04-27 13:30 | 39.35142 | -75.35476 | 21180 ft | 462 kts | 191° |
| 2026-04-27 13:30 | 39.31945 | -75.36058 | 21979 ft | 466 kts | 191° |
| 2026-04-27 13:30 | 39.28706 | -75.36474 | 22647 ft | 472 kts | 181° |
| 2026-04-27 13:31 | 39.25441 | -75.35681 | 23239 ft | 486 kts | 160° |
| 2026-04-27 13:31 | 39.22477 | -75.33553 | 23972 ft | 491 kts | 141° |
| 2026-04-27 13:31 | 39.21580 | -75.32568 | 24203 ft | 492 kts | 135° |
| 2026-04-27 13:31 | 39.20318 | -75.30798 | 24590 ft | 492 kts | 127° |
| 2026-04-27 13:32 | 39.18524 | -75.27063 | 25231 ft | 490 kts | 110° |
| 2026-04-27 13:32 | 39.17560 | -75.22876 | 25766 ft | 487 kts | 99° |
| 2026-04-27 13:32 | 39.16833 | -75.18580 | 26251 ft | 494 kts | 98° |
| 2026-04-27 13:32 | 39.16098 | -75.14221 | 26811 ft | 499 kts | 99° |
| 2026-04-27 13:33 | 39.15324 | -75.09835 | 27417 ft | 503 kts | 99° |
| 2026-04-27 13:33 | 39.14510 | -75.05441 | 28039 ft | 506 kts | 100° |
| 2026-04-27 13:33 | 39.13666 | -75.01019 | 28552 ft | 511 kts | 100° |
| 2026-04-27 13:33 | 39.12803 | -74.96560 | 29050 ft | 515 kts | 100° |
| 2026-04-27 13:34 | 39.11943 | -74.92119 | 29527 ft | 518 kts | 100° |
| 2026-04-27 13:34 | 39.11070 | -74.87600 | 29993 ft | 522 kts | 101° |
| 2026-04-27 13:34 | 39.10031 | -74.83046 | 30442 ft | 527 kts | 106° |
| 2026-04-27 13:34 | 39.08648 | -74.78664 | 30922 ft | 529 kts | 111° |
| 2026-04-27 13:35 | 39.06981 | -74.74440 | 31460 ft | 530 kts | 118° |
| 2026-04-27 13:35 | 39.05029 | -74.70423 | 31993 ft | 529 kts | 120° |
| 2026-04-27 13:35 | 39.03054 | -74.66509 | 32511 ft | 528 kts | 121° |
| 2026-04-27 13:35 | 39.01054 | -74.62548 | 32978 ft | 528 kts | 120° |
| 2026-04-27 13:36 | 38.99071 | -74.58583 | 33447 ft | 527 kts | 120° |
| 2026-04-27 13:36 | 38.97101 | -74.54610 | 33955 ft | 525 kts | 120° |
| 2026-04-27 13:36 | 38.95151 | -74.50657 | 34408 ft | 524 kts | 120° |
| 2026-04-27 13:36 | 38.93193 | -74.46680 | 34790 ft | 524 kts | 120° |
| 2026-04-27 13:37 | 38.91241 | -74.42725 | 35142 ft | 524 kts | 120° |
| 2026-04-27 13:37 | 38.89281 | -74.38766 | 35506 ft | 524 kts | 120° |
| 2026-04-27 13:37 | 38.87336 | -74.34812 | 35900 ft | 523 kts | 120° |
| 2026-04-27 13:37 | 38.85406 | -74.30858 | 36279 ft | 522 kts | 120° |
| 2026-04-27 13:38 | 38.83500 | -74.26967 | 36639 ft | 522 kts | 120° |
| 2026-04-27 13:38 | 38.81564 | -74.23029 | 36977 ft | 522 kts | 120° |
| 2026-04-27 13:38 | 38.79604 | -74.19048 | 37237 ft | 524 kts | 120° |
| 2026-04-27 13:38 | 38.77669 | -74.15126 | 37275 ft | 528 kts | 120° |
| 2026-04-27 13:39 | 38.73695 | -74.07215 | 37279 ft | 526 kts | 120° |
| 2026-04-27 13:39 | 38.69740 | -73.99381 | 37298 ft | 521 kts | 120° |
| 2026-04-27 13:40 | 38.65836 | -73.91586 | 37283 ft | 519 kts | 120° |
| 2026-04-27 13:40 | 38.61953 | -73.83799 | 37285 ft | 518 kts | 120° |
| 2026-04-27 13:41 | 38.58078 | -73.76088 | 37278 ft | 518 kts | 120° |
| 2026-04-27 13:41 | 38.54163 | -73.68354 | 37277 ft | 519 kts | 120° |
| 2026-04-27 13:42 | 38.50230 | -73.60609 | 37282 ft | 520 kts | 121° |
| 2026-04-27 13:42 | 38.46209 | -73.52909 | 37272 ft | 521 kts | 122° |
| 2026-04-27 13:43 | 38.42202 | -73.45206 | 37267 ft | 521 kts | 121° |
| 2026-04-27 13:43 | 38.38296 | -73.37417 | 37260 ft | 521 kts | 120° |
| 2026-04-27 13:44 | 38.35066 | -73.30944 | 37260 ft | 520 kts | 120° |
| 2026-04-27 13:44 | 38.31168 | -73.23187 | 37264 ft | 519 kts | 121° |
| 2026-04-27 13:45 | 38.26626 | -73.14207 | 37255 ft | 518 kts | 121° |
| 2026-04-27 13:45 | 38.23357 | -73.07758 | 37245 ft | 517 kts | 121° |
| 2026-04-27 13:46 | 38.19487 | -73.00134 | 37245 ft | 516 kts | 121° |
| 2026-04-27 13:46 | 38.15555 | -72.92484 | 37256 ft | 515 kts | 122° |
| 2026-04-27 13:47 | 38.11579 | -72.84896 | 37243 ft | 515 kts | 122° |
| 2026-04-27 13:47 | 38.07639 | -72.77304 | 37234 ft | 515 kts | 122° |
| 2026-04-27 13:48 | 38.03727 | -72.69705 | 37222 ft | 514 kts | 122° |
| 2026-04-27 13:48 | 37.99830 | -72.62160 | 37220 ft | 513 kts | 122° |
| 2026-04-27 13:49 | 37.95951 | -72.54566 | 37226 ft | 513 kts | 122° |
| 2026-04-27 13:49 | 37.92068 | -72.46979 | 37221 ft | 513 kts | 122° |
| 2026-04-27 13:50 | 37.88730 | -72.39053 | 37211 ft | 508 kts | 105° |
| 2026-04-27 13:50 | 37.87795 | -72.30348 | 37207 ft | 500 kts | 83° |
| 2026-04-27 13:51 | 37.88514 | -72.21619 | 37216 ft | 499 kts | 81° |
| 2026-04-27 13:51 | 37.89265 | -72.12846 | 37211 ft | 502 kts | 81° |
| 2026-04-27 13:52 | 37.89955 | -72.04025 | 37204 ft | 505 kts | 82° |
| 2026-04-27 13:52 | 37.90605 | -71.95163 | 37201 ft | 506 kts | 82° |
| 2026-04-27 13:53 | 37.91560 | -71.81815 | 37192 ft | 508 kts | 82° |
| 2026-04-27 13:54 | 37.92199 | -71.72962 | 37198 ft | 509 kts | 82° |
| 2026-04-27 13:54 | 37.92867 | -71.63544 | 37181 ft | 508 kts | 82° |
| 2026-04-27 13:55 | 37.93491 | -71.54603 | 37189 ft | 508 kts | 83° |
| 2026-04-27 13:55 | 37.94121 | -71.45678 | 37178 ft | 509 kts | 83° |
| 2026-04-27 13:56 | 37.94728 | -71.36802 | 37185 ft | 509 kts | 83° |
| 2026-04-27 13:56 | 37.95326 | -71.27850 | 37179 ft | 510 kts | 83° |
| 2026-04-27 13:57 | 37.95923 | -71.18884 | 37183 ft | 511 kts | 83° |
| 2026-04-27 13:57 | 37.96517 | -71.09913 | 37176 ft | 511 kts | 83° |
| 2026-04-27 13:58 | 37.97105 | -71.00940 | 37169 ft | 511 kts | 83° |
| 2026-04-27 13:58 | 37.97685 | -70.91965 | 37169 ft | 510 kts | 83° |
| 2026-04-27 13:59 | 37.98259 | -70.82993 | 37159 ft | 511 kts | 84° |
| 2026-04-27 13:59 | 37.98827 | -70.73998 | 37169 ft | 512 kts | 84° |
| 2026-04-27 14:00 | 37.98926 | -70.65054 | 37154 ft | 513 kts | 102° |
| 2026-04-27 14:00 | 37.97759 | -70.60800 | 37162 ft | 512 kts | 119° |
| 2026-04-27 14:00 | 37.95733 | -70.57109 | 37172 ft | 510 kts | 134° |
| 2026-04-27 14:00 | 37.93135 | -70.54057 | 37125 ft | 507 kts | 147° |
| 2026-04-27 14:01 | 37.90112 | -70.51828 | 37159 ft | 501 kts | 157° |
| 2026-04-27 14:01 | 37.83832 | -70.48020 | 37154 ft | 500 kts | 159° |
| 2026-04-27 14:02 | 37.77541 | -70.44275 | 37132 ft | 499 kts | 158° |
| 2026-04-27 14:02 | 37.71297 | -70.40442 | 37133 ft | 498 kts | 157° |
| 2026-04-27 14:03 | 37.65078 | -70.36558 | 37126 ft | 496 kts | 157° |
| 2026-04-27 14:03 | 37.58898 | -70.32692 | 37127 ft | 495 kts | 157° |
| 2026-04-27 14:04 | 37.52769 | -70.28871 | 37123 ft | 494 kts | 157° |
| 2026-04-27 14:04 | 37.46604 | -70.25040 | 37120 ft | 494 kts | 157° |
| 2026-04-27 14:05 | 37.40433 | -70.21214 | 37106 ft | 494 kts | 158° |
| 2026-04-27 14:05 | 37.34267 | -70.17397 | 37105 ft | 494 kts | 158° |
| 2026-04-27 14:06 | 37.28091 | -70.13581 | 37115 ft | 494 kts | 158° |
| 2026-04-27 14:06 | 37.21908 | -70.09768 | 37108 ft | 495 kts | 158° |
| 2026-04-27 14:07 | 37.15732 | -70.05965 | 37082 ft | 495 kts | 158° |
| 2026-04-27 14:07 | 37.09555 | -70.02169 | 37084 ft | 494 kts | 158° |
| 2026-04-27 14:08 | 37.03416 | -69.98403 | 37101 ft | 494 kts | 158° |
| 2026-04-27 14:08 | 36.97239 | -69.94621 | 37078 ft | 493 kts | 158° |
| 2026-04-27 14:09 | 36.91075 | -69.90853 | 37068 ft | 493 kts | 158° |
| 2026-04-27 14:09 | 36.84919 | -69.87097 | 37079 ft | 491 kts | 158° |
| 2026-04-27 14:10 | 36.78796 | -69.83369 | 37089 ft | 488 kts | 159° |
| 2026-04-27 14:10 | 36.72737 | -69.79695 | 37079 ft | 486 kts | 159° |
| 2026-04-27 14:11 | 36.66667 | -69.75992 | 37071 ft | 484 kts | 159° |
| 2026-04-27 14:11 | 36.60633 | -69.72337 | 37074 ft | 483 kts | 159° |
| 2026-04-27 14:12 | 36.54582 | -69.68684 | 37074 ft | 483 kts | 159° |
| 2026-04-27 14:12 | 36.48528 | -69.65033 | 37069 ft | 484 kts | 159° |
| 2026-04-27 14:13 | 36.42453 | -69.61372 | 37068 ft | 484 kts | 159° |
| 2026-04-27 14:13 | 36.36383 | -69.57719 | 37058 ft | 485 kts | 159° |
| 2026-04-27 14:14 | 36.30347 | -69.54094 | 37067 ft | 485 kts | 159° |
| 2026-04-27 14:14 | 36.24259 | -69.50444 | 37058 ft | 485 kts | 160° |
| 2026-04-27 14:15 | 36.18184 | -69.46792 | 37065 ft | 486 kts | 158° |
| 2026-04-27 14:15 | 36.12793 | -69.42605 | 37040 ft | 494 kts | 149° |
| 2026-04-27 14:16 | 36.07342 | -69.37453 | 37052 ft | 493 kts | 149° |
| 2026-04-27 14:16 | 36.01952 | -69.32214 | 37057 ft | 493 kts | 147° |
| 2026-04-27 14:17 | 35.97480 | -69.27830 | 37072 ft | 493 kts | 148° |
| 2026-04-27 14:17 | 35.92070 | -69.22627 | 37058 ft | 492 kts | 148° |
| 2026-04-27 14:18 | 35.86645 | -69.17473 | 37037 ft | 493 kts | 149° |
| 2026-04-27 14:18 | 35.81209 | -69.12324 | 37053 ft | 492 kts | 149° |
| 2026-04-27 14:19 | 35.75781 | -69.07185 | 37056 ft | 492 kts | 149° |
| 2026-04-27 14:19 | 35.70344 | -69.02043 | 37059 ft | 493 kts | 149° |
| 2026-04-27 14:20 | 35.64901 | -68.96904 | 37060 ft | 493 kts | 149° |
| 2026-04-27 14:20 | 35.59496 | -68.91809 | 37056 ft | 493 kts | 149° |
| 2026-04-27 14:21 | 35.54039 | -68.86675 | 37054 ft | 493 kts | 149° |
| 2026-04-27 14:21 | 35.48586 | -68.81555 | 37057 ft | 494 kts | 149° |
| 2026-04-27 14:22 | 35.43116 | -68.76426 | 37056 ft | 495 kts | 149° |
| 2026-04-27 14:22 | 35.37668 | -68.71327 | 37057 ft | 496 kts | 149° |
| 2026-04-27 14:23 | 35.32180 | -68.66199 | 37059 ft | 496 kts | 149° |
| 2026-04-27 14:23 | 35.26686 | -68.61075 | 37036 ft | 497 kts | 148° |
| 2026-04-27 14:24 | 35.21185 | -68.55953 | 37056 ft | 497 kts | 148° |
| 2026-04-27 14:24 | 35.15668 | -68.50826 | 37051 ft | 497 kts | 148° |
| 2026-04-27 14:25 | 35.10151 | -68.45707 | 37059 ft | 497 kts | 148° |
| 2026-04-27 14:25 | 35.04641 | -68.40603 | 37059 ft | 497 kts | 148° |
| 2026-04-27 14:26 | 34.99138 | -68.35515 | 37033 ft | 496 kts | 149° |
| 2026-04-27 14:26 | 34.93611 | -68.30416 | 37362 ft | 499 kts | 149° |
| 2026-04-27 14:26 | 34.90843 | -68.27865 | 37696 ft | 498 kts | 149° |
| 2026-04-27 14:27 | 34.88110 | -68.25347 | 38020 ft | 498 kts | 149° |
| 2026-04-27 14:27 | 34.85349 | -68.22806 | 38335 ft | 497 kts | 149° |
| 2026-04-27 14:27 | 34.82586 | -68.20265 | 38615 ft | 498 kts | 149° |
| 2026-04-27 14:27 | 34.79815 | -68.17720 | 38802 ft | 500 kts | 149° |
| 2026-04-27 14:28 | 34.77035 | -68.15170 | 38954 ft | 501 kts | 149° |
| 2026-04-27 14:28 | 34.71447 | -68.10049 | 39053 ft | 503 kts | 149° |
| 2026-04-27 14:29 | 34.65849 | -68.04923 | 39056 ft | 501 kts | 149° |
| 2026-04-27 14:29 | 34.60285 | -67.99839 | 39061 ft | 500 kts | 149° |
| 2026-04-27 14:30 | 34.54728 | -67.94772 | 39066 ft | 499 kts | 149° |
| 2026-04-27 14:30 | 34.49212 | -67.89751 | 39074 ft | 499 kts | 149° |
| 2026-04-27 14:31 | 34.43651 | -67.84698 | 39072 ft | 499 kts | 149° |
| 2026-04-27 14:31 | 34.38085 | -67.79648 | 39069 ft | 499 kts | 149° |
| 2026-04-27 14:32 | 34.32515 | -67.74604 | 39078 ft | 500 kts | 149° |
| 2026-04-27 14:32 | 34.26925 | -67.69549 | 39078 ft | 502 kts | 149° |
| 2026-04-27 14:33 | 34.21365 | -67.64527 | 39077 ft | 503 kts | 149° |
| 2026-04-27 14:33 | 34.15632 | -67.59756 | 39075 ft | 495 kts | 159° |
| 2026-04-27 14:34 | 34.09316 | -67.56762 | 39068 ft | 481 kts | 173° |
| 2026-04-27 14:34 | 34.02791 | -67.55294 | 39082 ft | 476 kts | 178° |
| 2026-04-27 14:35 | 33.96251 | -67.53968 | 39076 ft | 476 kts | 177° |
| 2026-04-27 14:35 | 33.89713 | -67.52601 | 39083 ft | 477 kts | 177° |
| 2026-04-27 14:36 | 33.83217 | -67.51211 | 39091 ft | 477 kts | 177° |
| 2026-04-27 14:36 | 33.76668 | -67.49805 | 39080 ft | 477 kts | 177° |
| 2026-04-27 14:37 | 33.70127 | -67.48403 | 39081 ft | 477 kts | 177° |
| 2026-04-27 14:37 | 33.63579 | -67.47004 | 39092 ft | 477 kts | 177° |
| 2026-04-27 14:38 | 33.57049 | -67.45611 | 39085 ft | 477 kts | 177° |
| 2026-04-27 14:38 | 33.50511 | -67.44219 | 39089 ft | 477 kts | 177° |
| 2026-04-27 14:39 | 33.43959 | -67.42826 | 39085 ft | 478 kts | 177° |
| 2026-04-27 14:39 | 33.37409 | -67.41436 | 39088 ft | 478 kts | 177° |
| 2026-04-27 14:40 | 33.30881 | -67.40052 | 39084 ft | 479 kts | 177° |
| 2026-04-27 14:40 | 33.24307 | -67.38661 | 39092 ft | 480 kts | 177° |
| 2026-04-27 14:41 | 33.17727 | -67.37270 | 39091 ft | 481 kts | 177° |
| 2026-04-27 14:41 | 33.11114 | -67.35874 | 39069 ft | 481 kts | 177° |
| 2026-04-27 14:42 | 33.04559 | -67.34492 | 39092 ft | 482 kts | 177° |
| 2026-04-27 14:42 | 32.97961 | -67.33106 | 39094 ft | 482 kts | 177° |
| 2026-04-27 14:43 | 32.91332 | -67.31717 | 39087 ft | 483 kts | 177° |
| 2026-04-27 14:43 | 32.84722 | -67.30333 | 39068 ft | 483 kts | 176° |
| 2026-04-27 14:44 | 32.78107 | -67.28950 | 39084 ft | 481 kts | 177° |
| 2026-04-27 14:44 | 32.71509 | -67.27571 | 39095 ft | 480 kts | 177° |
| 2026-04-27 14:45 | 32.64982 | -67.26211 | 39097 ft | 479 kts | 177° |
| 2026-04-27 14:45 | 32.58416 | -67.24844 | 39080 ft | 479 kts | 177° |
| 2026-04-27 14:46 | 32.51862 | -67.23482 | 39096 ft | 478 kts | 177° |
| 2026-04-27 14:46 | 32.45309 | -67.22122 | 39100 ft | 477 kts | 177° |
| 2026-04-27 14:47 | 32.38796 | -67.20772 | 39093 ft | 477 kts | 177° |
| 2026-04-27 14:47 | 32.32254 | -67.19419 | 39072 ft | 477 kts | 177° |
| 2026-04-27 14:48 | 32.25729 | -67.18072 | 39089 ft | 476 kts | 177° |
| 2026-04-27 14:48 | 32.15933 | -67.16053 | 39098 ft | 476 kts | 177° |
| 2026-04-27 14:49 | 32.09410 | -67.14711 | 39098 ft | 476 kts | 177° |
| 2026-04-27 14:49 | 32.02885 | -67.13369 | 39102 ft | 475 kts | 177° |
| 2026-04-27 14:50 | 31.96418 | -67.12041 | 39096 ft | 474 kts | 177° |
| 2026-04-27 14:50 | 31.89929 | -67.10712 | 39101 ft | 473 kts | 177° |
| 2026-04-27 14:51 | 31.83446 | -67.09385 | 39101 ft | 472 kts | 177° |
| 2026-04-27 14:51 | 31.78062 | -67.08285 | 39081 ft | 471 kts | 177° |
| 2026-04-27 14:52 | 31.70517 | -67.06747 | 39092 ft | 469 kts | 177° |
| 2026-04-27 14:52 | 31.64130 | -67.05452 | 39097 ft | 468 kts | 177° |
| 2026-04-27 14:53 | 31.57700 | -67.04151 | 39099 ft | 468 kts | 177° |
| 2026-04-27 14:53 | 31.51273 | -67.02851 | 39078 ft | 468 kts | 178° |
| 2026-04-27 14:54 | 31.44858 | -67.01554 | 39089 ft | 468 kts | 178° |
| 2026-04-27 14:54 | 31.38436 | -67.00259 | 39101 ft | 468 kts | 178° |
| 2026-04-27 14:55 | 31.32015 | -66.98965 | 39100 ft | 468 kts | 178° |
| 2026-04-27 14:55 | 31.25615 | -66.97677 | 39098 ft | 469 kts | 178° |
| 2026-04-27 14:56 | 31.19180 | -66.96384 | 39096 ft | 469 kts | 178° |
| 2026-04-27 14:56 | 31.12733 | -66.95089 | 39093 ft | 470 kts | 178° |
| 2026-04-27 14:57 | 31.06290 | -66.93798 | 39097 ft | 470 kts | 178° |
| 2026-04-27 14:57 | 30.99881 | -66.92511 | 39077 ft | 470 kts | 178° |
| 2026-04-27 14:58 | 30.93422 | -66.91215 | 39088 ft | 470 kts | 178° |
| 2026-04-27 14:58 | 30.86969 | -66.89922 | 39092 ft | 470 kts | 178° |
| 2026-04-27 14:59 | 30.80506 | -66.88630 | 39098 ft | 470 kts | 178° |
| 2026-04-27 14:59 | 30.74095 | -66.87349 | 39094 ft | 471 kts | 178° |
| 2026-04-27 15:00 | 30.67639 | -66.86060 | 39090 ft | 471 kts | 179° |
| 2026-04-27 15:00 | 30.61168 | -66.84771 | 39097 ft | 472 kts | 179° |
| 2026-04-27 15:01 | 30.54685 | -66.83482 | 39098 ft | 473 kts | 179° |
| 2026-04-27 15:01 | 30.48183 | -66.82190 | 39095 ft | 473 kts | 179° |
| 2026-04-27 15:02 | 30.41731 | -66.80910 | 39093 ft | 474 kts | 179° |
| 2026-04-27 15:02 | 30.35228 | -66.79621 | 39096 ft | 474 kts | 179° |
| 2026-04-27 15:03 | 30.28707 | -66.78330 | 39096 ft | 475 kts | 179° |
| 2026-04-27 15:03 | 30.23284 | -66.77258 | 39093 ft | 476 kts | 179° |
| 2026-04-27 15:04 | 30.16751 | -66.75968 | 39084 ft | 475 kts | 179° |
| 2026-04-27 15:04 | 30.10223 | -66.74681 | 39092 ft | 475 kts | 179° |
| 2026-04-27 15:05 | 30.03741 | -66.73404 | 39096 ft | 475 kts | 179° |
| 2026-04-27 15:05 | 29.97224 | -66.72123 | 39095 ft | 475 kts | 179° |
| 2026-04-27 15:06 | 29.90705 | -66.70842 | 39069 ft | 474 kts | 179° |
| 2026-04-27 15:06 | 29.84197 | -66.69576 | 39087 ft | 473 kts | 179° |
| 2026-04-27 15:07 | 29.77725 | -66.68325 | 39086 ft | 472 kts | 179° |
| 2026-04-27 15:07 | 29.71249 | -66.67075 | 39087 ft | 471 kts | 179° |
| 2026-04-27 15:08 | 29.64789 | -66.65829 | 39069 ft | 470 kts | 178° |
| 2026-04-27 15:08 | 29.58374 | -66.64592 | 39084 ft | 470 kts | 178° |
| 2026-04-27 15:09 | 29.51914 | -66.63347 | 39090 ft | 470 kts | 178° |
| 2026-04-27 15:09 | 29.45458 | -66.62105 | 39090 ft | 470 kts | 178° |
| 2026-04-27 15:10 | 29.38999 | -66.60864 | 39090 ft | 470 kts | 178° |
| 2026-04-27 15:10 | 29.32589 | -66.59634 | 39088 ft | 470 kts | 178° |
| 2026-04-27 15:11 | 29.26129 | -66.58396 | 39094 ft | 471 kts | 178° |
| 2026-04-27 15:11 | 29.19653 | -66.57156 | 39089 ft | 472 kts | 178° |
| 2026-04-27 15:12 | 29.13171 | -66.55917 | 39086 ft | 472 kts | 178° |
| 2026-04-27 15:12 | 29.06698 | -66.54681 | 39079 ft | 472 kts | 177° |
| 2026-04-27 15:13 | 29.00223 | -66.53446 | 39086 ft | 472 kts | 177° |
| 2026-04-27 15:13 | 28.93744 | -66.52212 | 39092 ft | 472 kts | 177° |
| 2026-04-27 15:14 | 28.87257 | -66.50978 | 39088 ft | 473 kts | 177° |
| 2026-04-27 15:14 | 28.80789 | -66.49749 | 39073 ft | 473 kts | 177° |
| 2026-04-27 15:15 | 28.74300 | -66.48518 | 39087 ft | 472 kts | 177° |
| 2026-04-27 15:15 | 28.67815 | -66.47289 | 39090 ft | 472 kts | 177° |
| 2026-04-27 15:16 | 28.61325 | -66.46060 | 39090 ft | 472 kts | 177° |
| 2026-04-27 15:16 | 28.54844 | -66.44835 | 39090 ft | 472 kts | 177° |
| 2026-04-27 15:17 | 28.48409 | -66.43620 | 39087 ft | 472 kts | 177° |
| 2026-04-27 15:17 | 28.41932 | -66.42399 | 39087 ft | 472 kts | 177° |
| 2026-04-27 15:18 | 28.35444 | -66.41177 | 39090 ft | 471 kts | 177° |
| 2026-04-27 15:18 | 28.28964 | -66.39959 | 39089 ft | 471 kts | 177° |
| 2026-04-27 15:19 | 28.22533 | -66.38750 | 39080 ft | 470 kts | 178° |
| 2026-04-27 15:19 | 28.16033 | -66.37530 | 39084 ft | 470 kts | 178° |
| 2026-04-27 15:20 | 28.09618 | -66.36328 | 39083 ft | 470 kts | 178° |
| 2026-04-27 15:20 | 28.03162 | -66.35120 | 39098 ft | 470 kts | 178° |
| 2026-04-27 15:21 | 27.96715 | -66.33915 | 39081 ft | 469 kts | 178° |
| 2026-04-27 15:21 | 27.90271 | -66.32710 | 39089 ft | 468 kts | 178° |
| 2026-04-27 15:22 | 27.83841 | -66.31512 | 39083 ft | 468 kts | 178° |
| 2026-04-27 15:22 | 27.77418 | -66.30316 | 39086 ft | 468 kts | 178° |
| 2026-04-27 15:23 | 27.71034 | -66.29128 | 39086 ft | 467 kts | 178° |
| 2026-04-27 15:23 | 27.64612 | -66.27935 | 39076 ft | 467 kts | 178° |
| 2026-04-27 15:24 | 27.58200 | -66.26744 | 39080 ft | 466 kts | 178° |
| 2026-04-27 15:24 | 27.51802 | -66.25558 | 39085 ft | 466 kts | 178° |
| 2026-04-27 15:25 | 27.45435 | -66.24381 | 39078 ft | 465 kts | 178° |
| 2026-04-27 15:25 | 27.39039 | -66.23197 | 39072 ft | 465 kts | 179° |
| 2026-04-27 15:26 | 27.32660 | -66.22017 | 39077 ft | 464 kts | 179° |
| 2026-04-27 15:26 | 27.26298 | -66.20843 | 39081 ft | 463 kts | 179° |
| 2026-04-27 15:27 | 27.19945 | -66.19673 | 39081 ft | 462 kts | 179° |
| 2026-04-27 15:27 | 27.13591 | -66.18504 | 39082 ft | 462 kts | 179° |
| 2026-04-27 15:28 | 27.07253 | -66.17338 | 39072 ft | 461 kts | 179° |
| 2026-04-27 15:28 | 27.00960 | -66.16182 | 39079 ft | 460 kts | 179° |
| 2026-04-27 15:29 | 26.94630 | -66.15021 | 39078 ft | 460 kts | 179° |
| 2026-04-27 15:29 | 26.88317 | -66.13865 | 39080 ft | 460 kts | 179° |
| 2026-04-27 15:30 | 26.81989 | -66.12707 | 39062 ft | 459 kts | 179° |
| 2026-04-27 15:30 | 26.75676 | -66.11552 | 39070 ft | 459 kts | 179° |
| 2026-04-27 15:31 | 26.69411 | -66.10408 | 39077 ft | 458 kts | 179° |
| 2026-04-27 15:31 | 26.63101 | -66.09257 | 39078 ft | 458 kts | 179° |
| 2026-04-27 15:32 | 26.56806 | -66.08110 | 39079 ft | 458 kts | 179° |
| 2026-04-27 15:32 | 26.50514 | -66.07009 | 39072 ft | 454 kts | 181° |
| 2026-04-27 15:33 | 26.44272 | -66.05920 | 39081 ft | 454 kts | 180° |
| 2026-04-27 15:33 | 26.38043 | -66.04729 | 39078 ft | 454 kts | 180° |
| 2026-04-27 15:34 | 26.31854 | -66.03575 | 39074 ft | 454 kts | 180° |
| 2026-04-27 15:34 | 26.25614 | -66.02440 | 39051 ft | 454 kts | 181° |
| 2026-04-27 15:35 | 26.19438 | -66.01331 | 39085 ft | 448 kts | 180° |
| 2026-04-27 15:35 | 26.14489 | -66.00407 | 39082 ft | 449 kts | 181° |
| 2026-04-27 15:36 | 26.09189 | -65.99457 | 39080 ft | 450 kts | 181° |
| 2026-04-27 15:36 | 26.03001 | -65.98354 | 39078 ft | 451 kts | 181° |
| 2026-04-27 15:37 | 25.96788 | -65.97239 | 39067 ft | 453 kts | 181° |
| 2026-04-27 15:37 | 25.90593 | -65.96205 | 39048 ft | 450 kts | 181° |
| 2026-04-27 15:38 | 25.84624 | -65.95086 | 39072 ft | 450 kts | 181° |
| 2026-04-27 15:38 | 25.78436 | -65.93936 | 39076 ft | 450 kts | 181° |
| 2026-04-27 15:39 | 25.72265 | -65.92821 | 39056 ft | 450 kts | 182° |
| 2026-04-27 15:39 | 25.66080 | -65.91714 | 39068 ft | 449 kts | 182° |
| 2026-04-27 15:40 | 25.59957 | -65.90618 | 39071 ft | 449 kts | 182° |
| 2026-04-27 15:40 | 25.53790 | -65.89515 | 39070 ft | 449 kts | 182° |
| 2026-04-27 15:41 | 25.47628 | -65.88414 | 39070 ft | 448 kts | 182° |
| 2026-04-27 15:41 | 25.41464 | -65.87312 | 39071 ft | 448 kts | 182° |
| 2026-04-27 15:42 | 25.35311 | -65.86214 | 39067 ft | 447 kts | 181° |
| 2026-04-27 15:42 | 25.29160 | -65.85118 | 39071 ft | 448 kts | 181° |
| 2026-04-27 15:43 | 25.23003 | -65.84022 | 39071 ft | 448 kts | 181° |
| 2026-04-27 15:43 | 25.16865 | -65.82931 | 39071 ft | 449 kts | 181° |
| 2026-04-27 15:44 | 25.10692 | -65.81833 | 39068 ft | 449 kts | 181° |
| 2026-04-27 15:44 | 25.04514 | -65.80736 | 39064 ft | 450 kts | 181° |
| 2026-04-27 15:45 | 24.98331 | -65.79639 | 39064 ft | 450 kts | 181° |
| 2026-04-27 15:45 | 24.92133 | -65.78541 | 39070 ft | 451 kts | 181° |
| 2026-04-27 15:46 | 24.85933 | -65.77447 | 39068 ft | 451 kts | 181° |
| 2026-04-27 15:46 | 24.79768 | -65.76359 | 39067 ft | 452 kts | 181° |
| 2026-04-27 15:47 | 24.73556 | -65.75264 | 39063 ft | 451 kts | 181° |
| 2026-04-27 15:47 | 24.67346 | -65.74170 | 39071 ft | 451 kts | 181° |
| 2026-04-27 15:48 | 24.61143 | -65.73078 | 39068 ft | 451 kts | 181° |
| 2026-04-27 15:49 | 24.52890 | -65.71627 | 39065 ft | 451 kts | 181° |
| 2026-04-27 15:49 | 24.45685 | -65.70362 | 39062 ft | 450 kts | 181° |
| 2026-04-27 15:50 | 24.39492 | -65.69276 | 39071 ft | 450 kts | 181° |
| 2026-04-27 15:50 | 24.33317 | -65.68194 | 39071 ft | 450 kts | 181° |
| 2026-04-27 15:51 | 24.28163 | -65.67293 | 39069 ft | 450 kts | 181° |
| 2026-04-27 15:51 | 24.21976 | -65.66211 | 39069 ft | 450 kts | 181° |
| 2026-04-27 15:52 | 24.15798 | -65.65131 | 39060 ft | 449 kts | 181° |
| 2026-04-27 15:52 | 24.09627 | -65.64054 | 39066 ft | 449 kts | 181° |
| 2026-04-27 15:53 | 24.03450 | -65.62977 | 39070 ft | 449 kts | 181° |
| 2026-04-27 15:53 | 23.97305 | -65.61907 | 39069 ft | 449 kts | 181° |
| 2026-04-27 15:54 | 23.91132 | -65.60833 | 39066 ft | 449 kts | 181° |
| 2026-04-27 15:54 | 23.84968 | -65.59760 | 39069 ft | 448 kts | 181° |
| 2026-04-27 15:55 | 23.78811 | -65.58691 | 39068 ft | 448 kts | 181° |
| 2026-04-27 15:55 | 23.72658 | -65.57624 | 39072 ft | 448 kts | 181° |
| 2026-04-27 15:56 | 23.66500 | -65.56556 | 39071 ft | 447 kts | 181° |
| 2026-04-27 15:56 | 23.60351 | -65.55491 | 39040 ft | 447 kts | 181° |
| 2026-04-27 15:57 | 23.54210 | -65.54428 | 39067 ft | 447 kts | 181° |
| 2026-04-27 15:57 | 23.48101 | -65.53210 | 39075 ft | 454 kts | 176° |
| 2026-04-27 15:58 | 23.41984 | -65.51433 | 39078 ft | 455 kts | 175° |
| 2026-04-27 15:58 | 23.35857 | -65.49628 | 39072 ft | 456 kts | 175° |
| 2026-04-27 15:59 | 23.29730 | -65.47843 | 39054 ft | 456 kts | 175° |
| 2026-04-27 15:59 | 23.23602 | -65.46071 | 39065 ft | 456 kts | 175° |
| 2026-04-27 16:00 | 23.17466 | -65.44303 | 39074 ft | 456 kts | 175° |
| 2026-04-27 16:00 | 23.11334 | -65.42538 | 39086 ft | 456 kts | 175° |
| 2026-04-27 16:01 | 23.05233 | -65.40783 | 39080 ft | 456 kts | 175° |
| 2026-04-27 16:01 | 22.99094 | -65.39018 | 39074 ft | 456 kts | 175° |
| 2026-04-27 16:02 | 22.92950 | -65.37253 | 39077 ft | 456 kts | 175° |
| 2026-04-27 16:02 | 22.86806 | -65.35490 | 39077 ft | 456 kts | 175° |
| 2026-04-27 16:03 | 22.80667 | -65.33730 | 39073 ft | 456 kts | 175° |
| 2026-04-27 16:03 | 22.74561 | -65.31981 | 39074 ft | 456 kts | 175° |
| 2026-04-27 16:04 | 22.68420 | -65.30224 | 39077 ft | 456 kts | 175° |
| 2026-04-27 16:04 | 22.62280 | -65.28468 | 39072 ft | 456 kts | 175° |
| 2026-04-27 16:05 | 22.56141 | -65.26715 | 39074 ft | 456 kts | 175° |
| 2026-04-27 16:05 | 22.49987 | -65.24959 | 39077 ft | 456 kts | 175° |
| 2026-04-27 16:06 | 22.43846 | -65.23208 | 39082 ft | 456 kts | 175° |
| 2026-04-27 16:06 | 22.37742 | -65.21470 | 39078 ft | 457 kts | 175° |
| 2026-04-27 16:07 | 22.31599 | -65.19721 | 39076 ft | 456 kts | 175° |
| 2026-04-27 16:07 | 22.25413 | -65.17962 | 39083 ft | 457 kts | 175° |
| 2026-04-27 16:08 | 22.19298 | -65.16225 | 39080 ft | 457 kts | 175° |
| 2026-04-27 16:08 | 22.13135 | -65.14475 | 39079 ft | 458 kts | 175° |
| 2026-04-27 16:09 | 22.07028 | -65.12243 | 39077 ft | 472 kts | 166° |
| 2026-04-27 16:09 | 21.98137 | -65.07679 | 39078 ft | 474 kts | 164° |
| 2026-04-27 16:10 | 21.86192 | -65.01574 | 39079 ft | 474 kts | 165° |
| 2026-04-27 16:11 | 21.77224 | -64.97036 | 39066 ft | 475 kts | 165° |
| 2026-04-27 16:12 | 21.68283 | -64.92518 | 39076 ft | 475 kts | 164° |
| 2026-04-27 16:13 | 21.59309 | -64.87987 | 39079 ft | 474 kts | 164° |
| 2026-04-27 16:13 | 21.50357 | -64.83474 | 39078 ft | 473 kts | 165° |
| 2026-04-27 16:14 | 21.38472 | -64.77493 | 39067 ft | 472 kts | 164° |
| 2026-04-27 16:15 | 21.26573 | -64.71515 | 39081 ft | 472 kts | 164° |
| 2026-04-27 16:16 | 21.14677 | -64.65550 | 39083 ft | 472 kts | 164° |
| 2026-04-27 16:17 | 21.02812 | -64.59611 | 39074 ft | 472 kts | 164° |
| 2026-04-27 16:18 | 20.90908 | -64.53662 | 39082 ft | 472 kts | 164° |
| 2026-04-27 16:19 | 20.84946 | -64.50686 | 39081 ft | 472 kts | 164° |
| 2026-04-27 16:20 | 20.73056 | -64.44760 | 39074 ft | 472 kts | 163° |
| 2026-04-27 16:21 | 20.64119 | -64.40312 | 39081 ft | 472 kts | 163° |
| 2026-04-27 16:22 | 20.52224 | -64.34401 | 39075 ft | 471 kts | 163° |
| 2026-04-27 16:22 | 20.43352 | -64.29999 | 39076 ft | 470 kts | 163° |
| 2026-04-27 16:23 | 20.34456 | -64.25586 | 39079 ft | 470 kts | 162° |
| 2026-04-27 16:24 | 20.28530 | -64.22621 | 39081 ft | 470 kts | 162° |
| 2026-04-27 16:25 | 20.16733 | -64.16711 | 39082 ft | 470 kts | 162° |
| 2026-04-27 16:26 | 20.04882 | -64.10792 | 39071 ft | 470 kts | 162° |
| 2026-04-27 16:27 | 19.93046 | -64.04890 | 39072 ft | 470 kts | 162° |
| 2026-04-27 16:28 | 19.78271 | -63.97537 | 39081 ft | 470 kts | 162° |
| 2026-04-27 16:29 | 19.63459 | -63.90179 | 39082 ft | 469 kts | 162° |
| 2026-04-27 16:30 | 19.51657 | -63.84328 | 39082 ft | 468 kts | 162° |
| 2026-04-27 16:31 | 19.36959 | -63.77055 | 39079 ft | 467 kts | 162° |
| 2026-04-27 16:32 | 19.28129 | -63.72693 | 39084 ft | 467 kts | 161° |
| 2026-04-27 16:33 | 19.19305 | -63.68338 | 39076 ft | 466 kts | 161° |
| 2026-04-27 16:33 | 19.13428 | -63.65441 | 39076 ft | 465 kts | 161° |
| 2026-04-27 16:34 | 19.07553 | -63.62572 | 39070 ft | 465 kts | 161° |
| 2026-04-27 16:34 | 19.01655 | -63.59665 | 39086 ft | 468 kts | 161° |
| 2026-04-27 16:35 | 18.95764 | -63.56749 | 39085 ft | 472 kts | 161° |
| 2026-04-27 16:36 | 18.86802 | -63.52343 | 39079 ft | 475 kts | 161° |
| 2026-04-27 16:36 | 18.80795 | -63.49396 | 39076 ft | 476 kts | 161° |
| 2026-04-27 16:37 | 18.75900 | -63.46983 | 38514 ft | 451 kts | 161° |
| 2026-04-27 16:37 | 18.73112 | -63.45601 | 37682 ft | 437 kts | 161° |
| 2026-04-27 16:37 | 18.69471 | -63.43818 | 35989 ft | 435 kts | 161° |
| 2026-04-27 16:37 | 18.66722 | -63.42480 | 34688 ft | 435 kts | 161° |
| 2026-04-27 16:38 | 18.63996 | -63.41151 | 33473 ft | 430 kts | 161° |
| 2026-04-27 16:38 | 18.61286 | -63.39828 | 32119 ft | 427 kts | 161° |
| 2026-04-27 16:38 | 18.59507 | -63.38959 | 31235 ft | 425 kts | 161° |
| 2026-04-27 16:38 | 18.56824 | -63.37649 | 30072 ft | 422 kts | 160° |
| 2026-04-27 16:39 | 18.54120 | -63.36330 | 28950 ft | 438 kts | 160° |
| 2026-04-27 16:39 | 18.51292 | -63.34957 | 28060 ft | 456 kts | 160° |
| 2026-04-27 16:39 | 18.48366 | -63.33532 | 27535 ft | 464 kts | 159° |
| 2026-04-27 16:39 | 18.45429 | -63.32096 | 27123 ft | 468 kts | 159° |
| 2026-04-27 16:40 | 18.42468 | -63.30646 | 26769 ft | 470 kts | 159° |
| 2026-04-27 16:40 | 18.39541 | -63.29213 | 26175 ft | 470 kts | 159° |
| 2026-04-27 16:40 | 18.36579 | -63.27763 | 25489 ft | 466 kts | 159° |
| 2026-04-27 16:40 | 18.33658 | -63.26336 | 24796 ft | 462 kts | 159° |
| 2026-04-27 16:41 | 18.30754 | -63.24917 | 24103 ft | 458 kts | 159° |
| 2026-04-27 16:41 | 18.27867 | -63.23510 | 23379 ft | 455 kts | 159° |
| 2026-04-27 16:41 | 18.25008 | -63.22118 | 22622 ft | 451 kts | 159° |
| 2026-04-27 16:41 | 18.22170 | -63.20735 | 21910 ft | 446 kts | 159° |
| 2026-04-27 16:42 | 18.19372 | -63.19373 | 21251 ft | 441 kts | 159° |
| 2026-04-27 16:42 | 18.16601 | -63.18024 | 20596 ft | 436 kts | 159° |
| 2026-04-27 16:42 | 18.13867 | -63.16694 | 19950 ft | 432 kts | 159° |
| 2026-04-27 16:42 | 18.11151 | -63.15373 | 19299 ft | 428 kts | 158° |
| 2026-04-27 16:43 | 18.08463 | -63.14067 | 18655 ft | 425 kts | 158° |
| 2026-04-27 16:43 | 18.05809 | -63.12809 | 17962 ft | 421 kts | 160° |
| 2026-04-27 16:43 | 18.03058 | -63.11813 | 17282 ft | 415 kts | 166° |
| 2026-04-27 16:43 | 18.00261 | -63.11125 | 16615 ft | 409 kts | 172° |
| 2026-04-27 16:44 | 17.97466 | -63.10670 | 15992 ft | 405 kts | 173° |
| 2026-04-27 16:44 | 17.94692 | -63.10210 | 15367 ft | 401 kts | 172° |
| 2026-04-27 16:44 | 17.91943 | -63.09745 | 14749 ft | 398 kts | 172° |
| 2026-04-27 16:44 | 17.89218 | -63.09279 | 14122 ft | 396 kts | 172° |
| 2026-04-27 16:45 | 17.86506 | -63.08813 | 13451 ft | 394 kts | 172° |
| 2026-04-27 16:45 | 17.83820 | -63.08349 | 12847 ft | 389 kts | 172° |
| 2026-04-27 16:45 | 17.81195 | -63.07896 | 12248 ft | 385 kts | 172° |
| 2026-04-27 16:45 | 17.78556 | -63.07440 | 11675 ft | 379 kts | 171° |
| 2026-04-27 16:46 | 17.76024 | -63.07004 | 11057 ft | 360 kts | 171° |
| 2026-04-27 16:46 | 17.73606 | -63.06586 | 10901 ft | 345 kts | 171° |
| 2026-04-27 16:46 | 17.71282 | -63.06183 | 10749 ft | 333 kts | 172° |
| 2026-04-27 16:46 | 17.69032 | -63.05794 | 10588 ft | 322 kts | 171° |
| 2026-04-27 16:47 | 17.66855 | -63.05419 | 10456 ft | 312 kts | 171° |
| 2026-04-27 16:47 | 17.64748 | -63.05053 | 10308 ft | 302 kts | 171° |
| 2026-04-27 16:47 | 17.62707 | -63.04705 | 10196 ft | 293 kts | 172° |
| 2026-04-27 16:47 | 17.60727 | -63.04367 | 10065 ft | 284 kts | 171° |
| 2026-04-27 16:48 | 17.58781 | -63.04033 | 9727 ft | 283 kts | 171° |
| 2026-04-27 16:48 | 17.56846 | -63.03700 | 9425 ft | 281 kts | 171° |
| 2026-04-27 16:48 | 17.54915 | -63.03368 | 9101 ft | 280 kts | 171° |
| 2026-04-27 16:49 | 17.51082 | -63.02708 | 8446 ft | 278 kts | 171° |
| 2026-04-27 16:49 | 17.49176 | -63.02382 | 8130 ft | 277 kts | 171° |
| 2026-04-27 16:49 | 17.47278 | -63.02054 | 7807 ft | 277 kts | 171° |
| 2026-04-27 16:49 | 17.45374 | -63.01726 | 7485 ft | 276 kts | 171° |
| 2026-04-27 16:50 | 17.43500 | -63.01402 | 7164 ft | 276 kts | 171° |
| 2026-04-27 16:50 | 17.41602 | -63.01076 | 6839 ft | 276 kts | 170° |
| 2026-04-27 16:50 | 17.39704 | -63.00751 | 6520 ft | 276 kts | 170° |
| 2026-04-27 16:50 | 17.37801 | -63.00424 | 6176 ft | 276 kts | 170° |
| 2026-04-27 16:51 | 17.35902 | -63.00098 | 5837 ft | 276 kts | 169° |
| 2026-04-27 16:51 | 17.34088 | -62.99546 | 5500 ft | 271 kts | 156° |
| 2026-04-27 16:51 | 17.32379 | -62.98710 | 5202 ft | 269 kts | 153° |
| 2026-04-27 16:51 | 17.30686 | -62.97859 | 4824 ft | 269 kts | 153° |
| 2026-04-27 16:52 | 17.29026 | -62.97049 | 4475 ft | 257 kts | 154° |
| 2026-04-27 16:52 | 17.27414 | -62.96252 | 4182 ft | 256 kts | 149° |
| 2026-04-27 16:52 | 17.25926 | -62.95286 | 3876 ft | 254 kts | 144° |
| 2026-04-27 16:52 | 17.24466 | -62.94250 | 3618 ft | 253 kts | 144° |
| 2026-04-27 16:53 | 17.23037 | -62.93243 | 3437 ft | 237 kts | 144° |
| 2026-04-27 16:53 | 17.21718 | -62.92321 | 3321 ft | 219 kts | 142° |
| 2026-04-27 16:53 | 17.20761 | -62.91167 | 3184 ft | 207 kts | 111° |
| 2026-04-27 16:53 | 17.20491 | -62.89745 | 3082 ft | 196 kts | 90° |
| 2026-04-27 16:54 | 17.20703 | -62.88380 | 2951 ft | 187 kts | 67° |
| 2026-04-27 16:54 | 17.21409 | -62.87233 | 2885 ft | 194 kts | 59° |
| 2026-04-27 16:54 | 17.22158 | -62.86058 | 2768 ft | 191 kts | 60° |
| 2026-04-27 16:54 | 17.22864 | -62.84935 | 2614 ft | 185 kts | 60° |
| 2026-04-27 16:55 | 17.23561 | -62.83830 | 2444 ft | 178 kts | 59° |
| 2026-04-27 16:55 | 17.24222 | -62.82784 | 2310 ft | 167 kts | 60° |
| 2026-04-27 16:55 | 17.24849 | -62.81789 | 2198 ft | 161 kts | 60° |
| 2026-04-27 16:55 | 17.25463 | -62.80819 | 2131 ft | 162 kts | 60° |
| 2026-04-27 16:56 | 17.26077 | -62.79852 | 2009 ft | 155 kts | 60° |
| 2026-04-27 16:56 | 17.26654 | -62.78942 | 1746 ft | 143 kts | 61° |
| 2026-04-27 16:56 | 17.27181 | -62.78107 | 1585 ft | 137 kts | 62° |
| 2026-04-27 16:56 | 17.27719 | -62.77252 | 1393 ft | 141 kts | 60° |
| 2026-04-27 16:57 | 17.28244 | -62.76425 | 1335 ft | 134 kts | 62° |
| 2026-04-27 16:57 | 17.28756 | -62.75613 | 1289 ft | 136 kts | 60° |
| 2026-04-27 16:57 | 17.29289 | -62.74761 | 1227 ft | 144 kts | 61° |
| 2026-04-27 16:57 | 17.29850 | -62.73864 | 816 ft | 151 kts | 62° |
| 2026-04-27 16:58 | 17.30420 | -62.72986 | 324 ft | 146 kts | 62° |
| 2026-04-27 16:58 | 17.30927 | -62.72147 | 181 ft | 123 kts | 58° |
| 2026-04-27 16:58 | 17.31303 | -62.71584 | 174 ft | 62 kts | 56° |
| 2026-04-27 16:58 | 17.31425 | -62.71371 | 172 ft | 4 kts | 128° |
| 2026-04-27 16:59 | 17.31396 | -62.71374 | 171 ft | 6 kts | 201° |
| 2026-04-27 16:59 | 17.31320 | -62.71417 | 168 ft | 18 kts | 209° |
| 2026-04-27 16:59 | 17.31278 | -62.71442 | 166 ft | 0 kts | 209° |
| 2026-04-27 17:00 | 17.31266 | -62.71449 | 165 ft | 6 kts | 210° |
| 2026-04-27 17:00 | 17.31215 | -62.71502 | 165 ft | 9 kts | 235° |
| 2026-04-27 17:00 | 17.31176 | -62.71565 | 165 ft | 11 kts | 237° |
| 2026-04-27 17:01 | 17.31144 | -62.71612 | 165 ft | 6 kts | 221° |
| 2026-04-27 17:01 | 17.31115 | -62.71613 | 165 ft | 5 kts | 161° |
| 2026-04-27 17:01 | 17.31079 | -62.71593 | 165 ft | 5 kts | 147° |
| 2026-04-27 17:01 | 17.31053 | -62.71575 | 165 ft | 2 kts | 147° |
| 2026-04-27 17:02 | 17.31048 | -62.71572 | 165 ft | 0 kts | 146° |
| 2026-04-27 17:04 | 17.31035 | -62.71573 | 165 ft | 0 kts | 186° |